PWSweather.com
Personal Weather Stations
Station Observations
MADWEATHER
MadeiraPT

MadeiraPT

Lat: 32.735, Lon: -17.194

Elevation: 1063

Station Type: Davis VantagePro2

www.mad-weather.com

High Low Average
Temperature 62.1°F16.7°F 57.8°F14.3°F 59.7°F15.4°F
Dew Point 49.9°F9.9°F 43.7°F6.5°F 46.7°F8.2°F
Winds 15.6 mph -25.1 mph - 4.3 mph 6.9 mph 9.7 mph 15.6 mph
Wind Gusts 21.0 mph33.8 mph 7.0 mph11.3 mph 13.5 mph21.7 mph
Humidity 67% 57% 62%
Pressure 30.13 in1020.30 in 30.00 in1015.90 in -
Precipitation 0.00 in0.00 in - -
Hour Temp Dew Point Humidity Winds Wind Gusts Pressure Precip Precip Rate Daily Precip Total
12:00 AM 58.8°F14.9°C 45.4°F7.4°C 61% 5.7 mph ESE9.2 kmh ESE 7.0 mph11.3 kmh 30.09 in1019.0 mb - 0.00 in0.0 mm 0.00 in0.0 mm
12:10 AM 58.8°F14.9°C 45.4°F7.4°C 61% 4.3 mph ESE6.9 kmh ESE 7.0 mph11.3 kmh 30.08 in1018.6 mb - 0.00 in0.0 mm 0.00 in0.0 mm
12:20 AM 58.8°F14.9°C 45.8°F7.7°C 62% 7.1 mph SE11.4 kmh SE 9.0 mph14.5 kmh 30.09 in1019.0 mb - 0.00 in0.0 mm 0.00 in0.0 mm
12:30 AM 59.0°F15.0°C 45.6°F7.6°C 61% 5.7 mph SE9.2 kmh SE 8.0 mph12.9 kmh 30.08 in1018.6 mb - 0.00 in0.0 mm 0.00 in0.0 mm
12:40 AM 59.0°F15.0°C 44.7°F7.1°C 59% 6.8 mph SE10.9 kmh SE 10.0 mph16.1 kmh 30.09 in1019.0 mb - 0.00 in0.0 mm 0.00 in0.0 mm
12:50 AM 59.0°F15.0°C 44.7°F7.1°C 59% 6.2 mph SE10.0 kmh SE 10.0 mph16.1 kmh 30.08 in1018.6 mb - 0.00 in0.0 mm 0.00 in0.0 mm
01:00 AM 59.0°F15.0°C 43.8°F6.6°C 57% 7.5 mph SE12.1 kmh SE 12.0 mph19.3 kmh 30.08 in1018.6 mb - 0.00 in0.0 mm 0.00 in0.0 mm
01:10 AM 58.9°F14.9°C 43.7°F6.5°C 57% 7.8 mph SE12.6 kmh SE 12.0 mph19.3 kmh 30.07 in1018.3 mb - 0.00 in0.0 mm 0.00 in0.0 mm
01:20 AM 58.9°F14.9°C 44.1°F6.7°C 58% 6.6 mph SE10.6 kmh SE 9.0 mph14.5 kmh 30.07 in1018.3 mb - 0.00 in0.0 mm 0.00 in0.0 mm
01:30 AM 58.9°F14.9°C 44.6°F7.0°C 59% 7.5 mph SE12.1 kmh SE 12.0 mph19.3 kmh 30.07 in1018.3 mb - 0.00 in0.0 mm 0.00 in0.0 mm
01:40 AM 58.8°F14.9°C 44.9°F7.2°C 60% 6.8 mph SSE10.9 kmh SSE 10.0 mph16.1 kmh 30.07 in1018.3 mb - 0.00 in0.0 mm 0.00 in0.0 mm
01:50 AM 58.8°F14.9°C 44.5°F6.9°C 59% 8.0 mph SSE12.9 kmh SSE 10.0 mph16.1 kmh 30.07 in1018.3 mb - 0.00 in0.0 mm 0.00 in0.0 mm
02:00 AM 58.8°F14.9°C 45.0°F7.2°C 60% 9.8 mph SSE15.8 kmh SSE 12.0 mph19.3 kmh 30.07 in1018.3 mb - 0.00 in0.0 mm 0.00 in0.0 mm
02:10 AM 58.7°F14.8°C 44.8°F7.1°C 60% 7.8 mph SSE12.6 kmh SSE 11.0 mph17.7 kmh 30.06 in1017.9 mb - 0.00 in0.0 mm 0.00 in0.0 mm
02:20 AM 58.7°F14.8°C 44.4°F6.9°C 59% 8.0 mph SSE12.9 kmh SSE 13.0 mph20.9 kmh 30.06 in1017.9 mb - 0.00 in0.0 mm 0.00 in0.0 mm
02:30 AM 58.7°F14.8°C 44.4°F6.9°C 59% 7.8 mph SSE12.6 kmh SSE 12.0 mph19.3 kmh 30.05 in1017.6 mb - 0.00 in0.0 mm 0.00 in0.0 mm
02:40 AM 58.7°F14.8°C 44.4°F6.9°C 59% 9.8 mph SSE15.8 kmh SSE 17.0 mph27.4 kmh 30.04 in1017.3 mb - 0.00 in0.0 mm 0.00 in0.0 mm
02:50 AM 58.6°F14.8°C 44.3°F6.8°C 59% 7.3 mph SE11.7 kmh SE 11.0 mph17.7 kmh 30.04 in1017.3 mb - 0.00 in0.0 mm 0.00 in0.0 mm
03:00 AM 58.5°F14.7°C 44.7°F7.1°C 60% 8.6 mph SE13.8 kmh SE 13.0 mph20.9 kmh 30.04 in1017.3 mb - 0.00 in0.0 mm 0.00 in0.0 mm
03:10 AM 58.6°F14.8°C 44.7°F7.1°C 60% 8.2 mph SE13.2 kmh SE 15.0 mph24.1 kmh 30.04 in1017.3 mb - 0.00 in0.0 mm 0.00 in0.0 mm
03:20 AM 58.6°F14.8°C 44.8°F7.1°C 60% 10.0 mph SSE16.1 kmh SSE 14.0 mph22.5 kmh 30.04 in1017.3 mb - 0.00 in0.0 mm 0.00 in0.0 mm
03:30 AM 58.5°F14.7°C 44.2°F6.8°C 59% 7.1 mph SE11.4 kmh SE 10.0 mph16.1 kmh 30.04 in1017.3 mb - 0.00 in0.0 mm 0.00 in0.0 mm
03:40 AM 58.4°F14.7°C 44.6°F7.0°C 60% 7.5 mph SE12.1 kmh SE 10.0 mph16.1 kmh 30.04 in1017.3 mb - 0.00 in0.0 mm 0.00 in0.0 mm
03:50 AM 58.3°F14.6°C 44.5°F6.9°C 60% 5.4 mph SE8.7 kmh SE 10.0 mph16.1 kmh 30.03 in1016.9 mb - 0.00 in0.0 mm 0.00 in0.0 mm
04:00 AM 58.3°F14.6°C 45.3°F7.4°C 62% 9.2 mph SE14.8 kmh SE 12.0 mph19.3 kmh 30.02 in1016.6 mb - 0.00 in0.0 mm 0.00 in0.0 mm
04:10 AM 58.4°F14.7°C 45.0°F7.2°C 61% 10.5 mph SSE16.9 kmh SSE 17.0 mph27.4 kmh 30.01 in1016.3 mb - 0.00 in0.0 mm 0.00 in0.0 mm
04:20 AM 58.3°F14.6°C 44.5°F6.9°C 60% 13.1 mph SSE21.1 kmh SSE 15.0 mph24.1 kmh 30.01 in1016.3 mb - 0.00 in0.0 mm 0.00 in0.0 mm
04:30 AM 58.3°F14.6°C 44.4°F6.9°C 60% 11.8 mph SE19.0 kmh SE 14.0 mph22.5 kmh 30.00 in1015.9 mb - 0.00 in0.0 mm 0.00 in0.0 mm
04:40 AM 58.2°F14.6°C 44.8°F7.1°C 61% 13.0 mph SE20.9 kmh SE 18.0 mph29.0 kmh 30.01 in1016.3 mb - 0.00 in0.0 mm 0.00 in0.0 mm
04:50 AM 58.2°F14.6°C 44.8°F7.1°C 61% 11.9 mph SSE19.2 kmh SSE 17.0 mph27.4 kmh 30.01 in1016.3 mb - 0.00 in0.0 mm 0.00 in0.0 mm
05:00 AM 58.2°F14.6°C 44.8°F7.1°C 61% 11.5 mph SSE18.5 kmh SSE 16.0 mph25.7 kmh 30.02 in1016.6 mb - 0.00 in0.0 mm 0.00 in0.0 mm
05:10 AM 58.1°F14.5°C 45.1°F7.3°C 62% 8.4 mph SSE13.5 kmh SSE 11.0 mph17.7 kmh 30.02 in1016.6 mb - 0.00 in0.0 mm 0.00 in0.0 mm
05:20 AM 58.1°F14.5°C 44.3°F6.8°C 60% 8.2 mph SSE13.2 kmh SSE 13.0 mph20.9 kmh 30.02 in1016.6 mb - 0.00 in0.0 mm 0.00 in0.0 mm
05:30 AM 58.2°F14.6°C 44.8°F7.1°C 61% 9.5 mph SE15.3 kmh SE 14.0 mph22.5 kmh 30.02 in1016.6 mb - 0.00 in0.0 mm 0.00 in0.0 mm
05:40 AM 58.1°F14.5°C 44.7°F7.1°C 61% 9.8 mph SE15.8 kmh SE 15.0 mph24.1 kmh 30.02 in1016.6 mb - 0.00 in0.0 mm 0.00 in0.0 mm
05:50 AM 58.0°F14.4°C 44.6°F7.0°C 61% 9.0 mph SE14.5 kmh SE 13.0 mph20.9 kmh 30.02 in1016.6 mb - 0.00 in0.0 mm 0.00 in0.0 mm
06:00 AM 57.9°F14.4°C 44.5°F6.9°C 61% 12.6 mph SE20.3 kmh SE 15.0 mph24.1 kmh 30.02 in1016.6 mb - 0.00 in0.0 mm 0.00 in0.0 mm
06:10 AM 57.9°F14.4°C 44.6°F7.0°C 61% 9.1 mph SE14.6 kmh SE 12.0 mph19.3 kmh 30.02 in1016.6 mb - 0.00 in0.0 mm 0.00 in0.0 mm
06:20 AM 57.9°F14.4°C 44.5°F6.9°C 61% 10.6 mph SE17.1 kmh SE 15.0 mph24.1 kmh 30.03 in1016.9 mb - 0.00 in0.0 mm 0.00 in0.0 mm
06:30 AM 58.0°F14.4°C 44.6°F7.0°C 61% 9.1 mph SE14.6 kmh SE 13.0 mph20.9 kmh 30.04 in1017.3 mb - 0.00 in0.0 mm 0.00 in0.0 mm
06:40 AM 58.0°F14.4°C 44.6°F7.0°C 61% 9.9 mph SE15.9 kmh SE 12.0 mph19.3 kmh 30.04 in1017.3 mb - 0.00 in0.0 mm 0.00 in0.0 mm
06:50 AM 57.9°F14.4°C 44.6°F7.0°C 61% 6.2 mph SE10.0 kmh SE 11.0 mph17.7 kmh 30.04 in1017.3 mb - 0.00 in0.0 mm 0.00 in0.0 mm
07:00 AM 57.9°F14.4°C 44.5°F6.9°C 61% 4.5 mph SE7.2 kmh SE 10.0 mph16.1 kmh 30.04 in1017.3 mb - 0.00 in0.0 mm 0.00 in0.0 mm
07:10 AM 57.8°F14.3°C 44.9°F7.2°C 62% 7.8 mph SE12.6 kmh SE 11.0 mph17.7 kmh 30.04 in1017.3 mb - 0.00 in0.0 mm 0.00 in0.0 mm
07:20 AM 57.9°F14.4°C 45.0°F7.2°C 62% 10.1 mph SE16.3 kmh SE 15.0 mph24.1 kmh 30.05 in1017.6 mb - 0.00 in0.0 mm 0.00 in0.0 mm
07:30 AM 58.1°F14.5°C 45.1°F7.3°C 62% 8.4 mph SE13.5 kmh SE 13.0 mph20.9 kmh 30.04 in1017.3 mb - 0.00 in0.0 mm 0.00 in0.0 mm
07:40 AM 58.2°F14.6°C 45.3°F7.4°C 62% 5.8 mph SE9.3 kmh SE 9.0 mph14.5 kmh 30.05 in1017.6 mb - 0.00 in0.0 mm 0.00 in0.0 mm
07:50 AM 58.2°F14.6°C 45.7°F7.6°C 63% 9.4 mph SE15.1 kmh SE 12.0 mph19.3 kmh 30.05 in1017.6 mb - 0.00 in0.0 mm 0.00 in0.0 mm
08:00 AM 58.3°F14.6°C 45.8°F7.7°C 63% 5.8 mph SE9.3 kmh SE 11.0 mph17.7 kmh 30.05 in1017.6 mb - 0.00 in0.0 mm 0.00 in0.0 mm
08:10 AM 58.5°F14.7°C 46.8°F8.2°C 65% 7.3 mph SSE11.7 kmh SSE 12.0 mph19.3 kmh 30.06 in1017.9 mb - 0.00 in0.0 mm 0.00 in0.0 mm
08:20 AM 58.7°F14.8°C 47.0°F8.3°C 65% 12.2 mph SSE19.6 kmh SSE 19.0 mph30.6 kmh 30.07 in1018.3 mb - 0.00 in0.0 mm 0.00 in0.0 mm
08:30 AM 58.7°F14.8°C 47.0°F8.3°C 65% 11.1 mph SSE17.9 kmh SSE 12.0 mph19.3 kmh 30.07 in1018.3 mb - 0.00 in0.0 mm 0.00 in0.0 mm
08:40 AM 58.8°F14.9°C 46.6°F8.1°C 64% 12.0 mph SE19.3 kmh SE 13.0 mph20.9 kmh 30.07 in1018.3 mb - 0.00 in0.0 mm 0.00 in0.0 mm
08:50 AM 58.8°F14.9°C 46.6°F8.1°C 64% 13.6 mph SE21.9 kmh SE 16.0 mph25.7 kmh 30.07 in1018.3 mb - 0.00 in0.0 mm 0.00 in0.0 mm
09:00 AM 58.9°F14.9°C 47.2°F8.4°C 65% 11.6 mph SSE18.7 kmh SSE 16.0 mph25.7 kmh 30.07 in1018.3 mb - 0.00 in0.0 mm 0.00 in0.0 mm
09:10 AM 59.0°F15.0°C 47.6°F8.7°C 66% 10.9 mph SSE17.5 kmh SSE 16.0 mph25.7 kmh 30.08 in1018.6 mb - 0.00 in0.0 mm 0.00 in0.0 mm
09:20 AM 58.9°F14.9°C 47.1°F8.4°C 65% 13.4 mph SE21.6 kmh SE 15.0 mph24.1 kmh 30.08 in1018.6 mb - 0.00 in0.0 mm 0.00 in0.0 mm
09:30 AM 58.7°F14.8°C 47.0°F8.3°C 65% 14.6 mph SSE23.5 kmh SSE 17.0 mph27.4 kmh 30.08 in1018.6 mb - 0.00 in0.0 mm 0.00 in0.0 mm
09:40 AM 58.6°F14.8°C 47.3°F8.5°C 66% 12.9 mph SSE20.8 kmh SSE 19.0 mph30.6 kmh 30.08 in1018.6 mb - 0.00 in0.0 mm 0.00 in0.0 mm
09:50 AM 59.0°F15.0°C 47.7°F8.7°C 66% 9.7 mph SSE15.6 kmh SSE 16.0 mph25.7 kmh 30.09 in1019.0 mb - 0.00 in0.0 mm 0.00 in0.0 mm
10:00 AM 59.2°F15.1°C 47.0°F8.3°C 64% 11.3 mph SSE18.2 kmh SSE 15.0 mph24.1 kmh 30.08 in1018.6 mb - 0.00 in0.0 mm 0.00 in0.0 mm
10:10 AM 59.1°F15.1°C 46.5°F8.1°C 63% 11.9 mph SSE19.2 kmh SSE 21.0 mph33.8 kmh 30.08 in1018.6 mb - 0.00 in0.0 mm 0.00 in0.0 mm
10:20 AM 59.1°F15.1°C 46.9°F8.3°C 64% 10.1 mph SE16.3 kmh SE 13.0 mph20.9 kmh 30.09 in1019.0 mb - 0.00 in0.0 mm 0.00 in0.0 mm
10:30 AM 59.1°F15.1°C 46.5°F8.1°C 63% 9.2 mph SSE14.8 kmh SSE 13.0 mph20.9 kmh 30.09 in1019.0 mb - 0.00 in0.0 mm 0.00 in0.0 mm
10:40 AM 59.2°F15.1°C 46.6°F8.1°C 63% 12.1 mph SE19.5 kmh SE 15.0 mph24.1 kmh 30.08 in1018.6 mb - 0.00 in0.0 mm 0.00 in0.0 mm
10:50 AM 59.3°F15.2°C 47.1°F8.4°C 64% 13.6 mph SE21.9 kmh SE 19.0 mph30.6 kmh 30.08 in1018.6 mb - 0.00 in0.0 mm 0.00 in0.0 mm
11:00 AM 59.3°F15.2°C 47.5°F8.6°C 65% 14.2 mph SSE22.9 kmh SSE 17.0 mph27.4 kmh 30.08 in1018.6 mb - 0.00 in0.0 mm 0.00 in0.0 mm
11:10 AM 59.3°F15.2°C 47.2°F8.4°C 64% 10.4 mph SE16.7 kmh SE 13.0 mph20.9 kmh 30.08 in1018.6 mb - 0.00 in0.0 mm 0.00 in0.0 mm
11:20 AM 59.5°F15.3°C 46.9°F8.3°C 63% 15.6 mph SSE25.1 kmh SSE 18.0 mph29.0 kmh 30.08 in1018.6 mb - 0.00 in0.0 mm 0.00 in0.0 mm
11:30 AM 59.7°F15.4°C 47.1°F8.4°C 63% 11.4 mph SSE18.3 kmh SSE 14.0 mph22.5 kmh 30.08 in1018.6 mb - 0.00 in0.0 mm 0.00 in0.0 mm
11:40 AM 60.0°F15.6°C 46.9°F8.3°C 62% 14.1 mph SE22.7 kmh SE 19.0 mph30.6 kmh 30.08 in1018.6 mb - 0.00 in0.0 mm 0.00 in0.0 mm
11:50 AM 60.1°F15.6°C 47.9°F8.8°C 64% 13.5 mph SSE21.7 kmh SSE 19.0 mph30.6 kmh 30.09 in1019.0 mb - 0.00 in0.0 mm 0.00 in0.0 mm
12:00 PM 60.0°F15.6°C 48.2°F9.0°C 65% 11.5 mph SE18.5 kmh SE 17.0 mph27.4 kmh 30.09 in1019.0 mb - 0.00 in0.0 mm 0.00 in0.0 mm
12:10 PM 59.9°F15.5°C 48.1°F8.9°C 65% 14.0 mph SSE22.5 kmh SSE 17.0 mph27.4 kmh 30.09 in1019.0 mb - 0.00 in0.0 mm 0.00 in0.0 mm
12:20 PM 60.2°F15.7°C 47.1°F8.4°C 62% 12.6 mph SSE20.3 kmh SSE 15.0 mph24.1 kmh 30.09 in1019.0 mb - 0.00 in0.0 mm 0.00 in0.0 mm
12:30 PM 60.6°F15.9°C 48.4°F9.1°C 64% 11.9 mph SSE19.2 kmh SSE 18.0 mph29.0 kmh 30.09 in1019.0 mb - 0.00 in0.0 mm 0.00 in0.0 mm
12:40 PM 60.4°F15.8°C 47.3°F8.5°C 62% 13.7 mph SSE22.0 kmh SSE 17.0 mph27.4 kmh 30.10 in1019.3 mb - 0.00 in0.0 mm 0.00 in0.0 mm
12:50 PM 60.8°F16.0°C 47.7°F8.7°C 62% 11.3 mph SSE18.2 kmh SSE 18.0 mph29.0 kmh 30.10 in1019.3 mb - 0.00 in0.0 mm 0.00 in0.0 mm
01:00 PM 60.9°F16.1°C 47.4°F8.6°C 61% 10.4 mph S16.7 kmh S 15.0 mph24.1 kmh 30.10 in1019.3 mb - 0.00 in0.0 mm 0.00 in0.0 mm
01:10 PM 60.9°F16.1°C 47.4°F8.6°C 61% 12.2 mph S19.6 kmh S 16.0 mph25.7 kmh 30.09 in1019.0 mb - 0.00 in0.0 mm 0.00 in0.0 mm
01:20 PM 61.2°F16.2°C 47.6°F8.7°C 61% 10.8 mph S17.4 kmh S 14.0 mph22.5 kmh 30.09 in1019.0 mb - 0.00 in0.0 mm 0.00 in0.0 mm
01:30 PM 61.1°F16.2°C 48.0°F8.9°C 62% 9.8 mph S15.8 kmh S 13.0 mph20.9 kmh 30.09 in1019.0 mb - 0.00 in0.0 mm 0.00 in0.0 mm
01:40 PM 61.0°F16.1°C 48.3°F9.1°C 63% 9.2 mph S14.8 kmh S 14.0 mph22.5 kmh 30.09 in1019.0 mb - 0.00 in0.0 mm 0.00 in0.0 mm
01:50 PM 60.8°F16.0°C 48.1°F8.9°C 63% 9.2 mph S14.8 kmh S 14.0 mph22.5 kmh 30.09 in1019.0 mb - 0.00 in0.0 mm 0.00 in0.0 mm
02:00 PM 60.7°F15.9°C 48.0°F8.9°C 63% 10.4 mph S16.7 kmh S 16.0 mph25.7 kmh 30.08 in1018.6 mb - 0.00 in0.0 mm 0.00 in0.0 mm
02:10 PM 61.3°F16.3°C 48.6°F9.2°C 63% 9.0 mph S14.5 kmh S 12.0 mph19.3 kmh 30.08 in1018.6 mb - 0.00 in0.0 mm 0.00 in0.0 mm
02:20 PM 61.3°F16.3°C 48.6°F9.2°C 63% 10.0 mph S16.1 kmh S 16.0 mph25.7 kmh 30.08 in1018.6 mb - 0.00 in0.0 mm 0.00 in0.0 mm
02:30 PM 61.3°F16.3°C 48.1°F8.9°C 62% 11.7 mph SE18.8 kmh SE 16.0 mph25.7 kmh 30.08 in1018.6 mb - 0.00 in0.0 mm 0.00 in0.0 mm
02:40 PM 61.4°F16.3°C 48.7°F9.3°C 63% 12.6 mph SSE20.3 kmh SSE 16.0 mph25.7 kmh 30.07 in1018.3 mb - 0.00 in0.0 mm 0.00 in0.0 mm
02:50 PM 61.6°F16.4°C 48.4°F9.1°C 62% 12.3 mph SE19.8 kmh SE 15.0 mph24.1 kmh 30.07 in1018.3 mb - 0.00 in0.0 mm 0.00 in0.0 mm
03:00 PM 62.1°F16.7°C 48.9°F9.4°C 62% 11.0 mph SSE17.7 kmh SSE 13.0 mph20.9 kmh 30.07 in1018.3 mb - 0.00 in0.0 mm 0.00 in0.0 mm
03:10 PM 61.9°F16.6°C 48.7°F9.3°C 62% 9.1 mph SSE14.6 kmh SSE 13.0 mph20.9 kmh 30.07 in1018.3 mb - 0.00 in0.0 mm 0.00 in0.0 mm
03:20 PM 61.7°F16.5°C 48.6°F9.2°C 62% 10.1 mph SSE16.3 kmh SSE 14.0 mph22.5 kmh 30.06 in1017.9 mb - 0.00 in0.0 mm 0.00 in0.0 mm
03:30 PM 61.7°F16.5°C 48.5°F9.2°C 62% 12.5 mph SSE20.1 kmh SSE 15.0 mph24.1 kmh 30.06 in1017.9 mb - 0.00 in0.0 mm 0.00 in0.0 mm
03:40 PM 61.8°F16.6°C 49.5°F9.7°C 64% 9.3 mph SSE15.0 kmh SSE 12.0 mph19.3 kmh 30.06 in1017.9 mb - 0.00 in0.0 mm 0.00 in0.0 mm
03:50 PM 62.0°F16.7°C 49.2°F9.6°C 63% 11.2 mph SE18.0 kmh SE 14.0 mph22.5 kmh 30.06 in1017.9 mb - 0.00 in0.0 mm 0.00 in0.0 mm
04:00 PM 62.0°F16.7°C 49.7°F9.8°C 64% 9.5 mph SE15.3 kmh SE 16.0 mph25.7 kmh 30.06 in1017.9 mb - 0.00 in0.0 mm 0.00 in0.0 mm
04:10 PM 62.1°F16.7°C 49.3°F9.6°C 63% 10.7 mph SE17.2 kmh SE 17.0 mph27.4 kmh 30.06 in1017.9 mb - 0.00 in0.0 mm 0.00 in0.0 mm
04:20 PM 61.8°F16.6°C 49.9°F9.9°C 65% 12.1 mph SSE19.5 kmh SSE 19.0 mph30.6 kmh 30.06 in1017.9 mb - 0.00 in0.0 mm 0.00 in0.0 mm
04:30 PM 61.5°F16.4°C 49.6°F9.8°C 65% 11.2 mph SE18.0 kmh SE 15.0 mph24.1 kmh 30.06 in1017.9 mb - 0.00 in0.0 mm 0.00 in0.0 mm
04:40 PM 61.6°F16.4°C 48.9°F9.4°C 63% 12.2 mph SE19.6 kmh SE 16.0 mph25.7 kmh 30.06 in1017.9 mb - 0.00 in0.0 mm 0.00 in0.0 mm
04:50 PM 61.4°F16.3°C 48.3°F9.1°C 62% 10.5 mph SE16.9 kmh SE 16.0 mph25.7 kmh 30.06 in1017.9 mb - 0.00 in0.0 mm 0.00 in0.0 mm
05:00 PM 61.5°F16.4°C 48.3°F9.1°C 62% 9.7 mph SSE15.6 kmh SSE 16.0 mph25.7 kmh 30.07 in1018.3 mb - 0.00 in0.0 mm 0.00 in0.0 mm
05:10 PM 61.2°F16.2°C 48.0°F8.9°C 62% 13.1 mph SSE21.1 kmh SSE 19.0 mph30.6 kmh 30.07 in1018.3 mb - 0.00 in0.0 mm 0.00 in0.0 mm
05:20 PM 61.1°F16.2°C 48.4°F9.1°C 63% 9.6 mph SE15.4 kmh SE 14.0 mph22.5 kmh 30.06 in1017.9 mb - 0.00 in0.0 mm 0.00 in0.0 mm
05:30 PM 61.2°F16.2°C 47.6°F8.7°C 61% 9.8 mph SE15.8 kmh SE 16.0 mph25.7 kmh 30.06 in1017.9 mb - 0.00 in0.0 mm 0.00 in0.0 mm
05:40 PM 61.0°F16.1°C 47.5°F8.6°C 61% 6.5 mph SE10.5 kmh SE 13.0 mph20.9 kmh 30.07 in1018.3 mb - 0.00 in0.0 mm 0.00 in0.0 mm
05:50 PM 61.0°F16.1°C 47.8°F8.8°C 62% 9.3 mph SE15.0 kmh SE 14.0 mph22.5 kmh 30.07 in1018.3 mb - 0.00 in0.0 mm 0.00 in0.0 mm
06:00 PM 60.7°F15.9°C 47.6°F8.7°C 62% 9.5 mph ESE15.3 kmh ESE 13.0 mph20.9 kmh 30.07 in1018.3 mb - 0.00 in0.0 mm 0.00 in0.0 mm
06:10 PM 60.6°F15.9°C 47.5°F8.6°C 62% 7.1 mph SE11.4 kmh SE 8.0 mph12.9 kmh 30.07 in1018.3 mb - 0.00 in0.0 mm 0.00 in0.0 mm
06:20 PM 60.6°F15.9°C 47.5°F8.6°C 62% 7.8 mph SE12.6 kmh SE 12.0 mph19.3 kmh 30.07 in1018.3 mb - 0.00 in0.0 mm 0.00 in0.0 mm
06:30 PM 60.4°F15.8°C 47.4°F8.6°C 62% 7.8 mph ESE12.6 kmh ESE 13.0 mph20.9 kmh 30.07 in1018.3 mb - 0.00 in0.0 mm 0.00 in0.0 mm
06:40 PM 60.4°F15.8°C 47.3°F8.5°C 62% 9.3 mph ESE15.0 kmh ESE 11.0 mph17.7 kmh 30.07 in1018.3 mb - 0.00 in0.0 mm 0.00 in0.0 mm
06:50 PM 60.4°F15.8°C 47.3°F8.5°C 62% 10.7 mph SE17.2 kmh SE 13.0 mph20.9 kmh 30.08 in1018.6 mb - 0.00 in0.0 mm 0.00 in0.0 mm
07:00 PM 60.4°F15.8°C 47.3°F8.5°C 62% 11.8 mph SE19.0 kmh SE 14.0 mph22.5 kmh 30.08 in1018.6 mb - 0.00 in0.0 mm 0.00 in0.0 mm
07:10 PM 60.3°F15.7°C 47.2°F8.4°C 62% 9.3 mph SE15.0 kmh SE 14.0 mph22.5 kmh 30.08 in1018.6 mb - 0.00 in0.0 mm 0.00 in0.0 mm
07:20 PM 60.1°F15.6°C 47.0°F8.3°C 62% 11.4 mph ESE18.3 kmh ESE 14.0 mph22.5 kmh 30.09 in1019.0 mb - 0.00 in0.0 mm 0.00 in0.0 mm
07:30 PM 60.1°F15.6°C 47.4°F8.6°C 63% 6.4 mph ESE10.3 kmh ESE 9.0 mph14.5 kmh 30.09 in1019.0 mb - 0.00 in0.0 mm 0.00 in0.0 mm
07:40 PM 60.2°F15.7°C 47.1°F8.4°C 62% 8.4 mph SE13.5 kmh SE 12.0 mph19.3 kmh 30.10 in1019.3 mb - 0.00 in0.0 mm 0.00 in0.0 mm
07:50 PM 60.2°F15.7°C 48.0°F8.9°C 64% 9.2 mph SE14.8 kmh SE 15.0 mph24.1 kmh 30.10 in1019.3 mb - 0.00 in0.0 mm 0.00 in0.0 mm
08:00 PM 60.2°F15.7°C 48.0°F8.9°C 64% 9.8 mph SE15.8 kmh SE 11.0 mph17.7 kmh 30.10 in1019.3 mb - 0.00 in0.0 mm 0.00 in0.0 mm
08:10 PM 60.1°F15.6°C 47.9°F8.8°C 64% 8.1 mph ESE13.0 kmh ESE 11.0 mph17.7 kmh 30.10 in1019.3 mb - 0.00 in0.0 mm 0.00 in0.0 mm
08:20 PM 60.0°F15.6°C 47.8°F8.8°C 64% 6.3 mph ESE10.1 kmh ESE 11.0 mph17.7 kmh 30.11 in1019.6 mb - 0.00 in0.0 mm 0.00 in0.0 mm
08:30 PM 59.9°F15.5°C 48.1°F8.9°C 65% 6.7 mph ESE10.8 kmh ESE 10.0 mph16.1 kmh 30.11 in1019.6 mb - 0.00 in0.0 mm 0.00 in0.0 mm
08:40 PM 59.9°F15.5°C 47.7°F8.7°C 64% 4.4 mph SE7.1 kmh SE 10.0 mph16.1 kmh 30.11 in1019.6 mb - 0.00 in0.0 mm 0.00 in0.0 mm
08:50 PM 59.8°F15.4°C 47.6°F8.7°C 64% 6.2 mph SE10.0 kmh SE 11.0 mph17.7 kmh 30.11 in1019.6 mb - 0.00 in0.0 mm 0.00 in0.0 mm
09:00 PM 59.7°F15.4°C 47.5°F8.6°C 64% 6.7 mph SE10.8 kmh SE 10.0 mph16.1 kmh 30.11 in1019.6 mb - 0.00 in0.0 mm 0.00 in0.0 mm
09:10 PM 59.8°F15.4°C 47.2°F8.4°C 63% 8.1 mph SE13.0 kmh SE 12.0 mph19.3 kmh 30.11 in1019.6 mb - 0.00 in0.0 mm 0.00 in0.0 mm
09:20 PM 59.8°F15.4°C 47.2°F8.4°C 63% 8.4 mph ESE13.5 kmh ESE 10.0 mph16.1 kmh 30.12 in1020.0 mb - 0.00 in0.0 mm 0.00 in0.0 mm
09:30 PM 60.0°F15.6°C 47.3°F8.5°C 63% 10.2 mph ESE16.4 kmh ESE 14.0 mph22.5 kmh 30.12 in1020.0 mb - 0.00 in0.0 mm 0.00 in0.0 mm
09:40 PM 60.0°F15.6°C 47.4°F8.6°C 63% 6.1 mph SE9.8 kmh SE 10.0 mph16.1 kmh 30.12 in1020.0 mb - 0.00 in0.0 mm 0.00 in0.0 mm
09:50 PM 60.0°F15.6°C 47.4°F8.6°C 63% 7.7 mph ESE12.4 kmh ESE 11.0 mph17.7 kmh 30.12 in1020.0 mb - 0.00 in0.0 mm 0.00 in0.0 mm
10:00 PM 60.0°F15.6°C 46.5°F8.1°C 61% 8.8 mph ESE14.2 kmh ESE 10.0 mph16.1 kmh 30.12 in1020.0 mb - 0.00 in0.0 mm 0.00 in0.0 mm
10:10 PM 60.3°F15.7°C 46.4°F8.0°C 60% 10.0 mph ESE16.1 kmh ESE 14.0 mph22.5 kmh 30.12 in1020.0 mb - 0.00 in0.0 mm 0.00 in0.0 mm
10:20 PM 60.4°F15.8°C 46.9°F8.3°C 61% 9.7 mph ESE15.6 kmh ESE 15.0 mph24.1 kmh 30.12 in1020.0 mb - 0.00 in0.0 mm 0.00 in0.0 mm
10:30 PM 60.4°F15.8°C 47.3°F8.5°C 62% 10.5 mph SE16.9 kmh SE 14.0 mph22.5 kmh 30.13 in1020.3 mb - 0.00 in0.0 mm 0.00 in0.0 mm
10:40 PM 60.3°F15.7°C 47.2°F8.4°C 62% 10.1 mph SE16.3 kmh SE 13.0 mph20.9 kmh 30.13 in1020.3 mb - 0.00 in0.0 mm 0.00 in0.0 mm
10:50 PM 60.3°F15.7°C 48.1°F8.9°C 64% 12.3 mph SE19.8 kmh SE 15.0 mph24.1 kmh 30.12 in1020.0 mb - 0.00 in0.0 mm 0.00 in0.0 mm
11:00 PM 60.2°F15.7°C 48.4°F9.1°C 65% 7.1 mph SE11.4 kmh SE 12.0 mph19.3 kmh 30.12 in1020.0 mb - 0.00 in0.0 mm 0.00 in0.0 mm
11:10 PM 60.0°F15.6°C 48.6°F9.2°C 66% 9.4 mph SE15.1 kmh SE 12.0 mph19.3 kmh 30.12 in1020.0 mb - 0.00 in0.0 mm 0.00 in0.0 mm
11:20 PM 60.0°F15.6°C 48.6°F9.2°C 66% 8.3 mph SE13.4 kmh SE 11.0 mph17.7 kmh 30.12 in1020.0 mb - 0.00 in0.0 mm 0.00 in0.0 mm
11:30 PM 59.9°F15.5°C 48.9°F9.4°C 67% 8.7 mph SE14.0 kmh SE 15.0 mph24.1 kmh 30.12 in1020.0 mb - 0.00 in0.0 mm 0.00 in0.0 mm
11:40 PM 59.8°F15.4°C 48.8°F9.3°C 67% 8.9 mph ESE14.3 kmh ESE 12.0 mph19.3 kmh 30.11 in1019.6 mb - 0.00 in0.0 mm 0.00 in0.0 mm
11:50 PM 59.8°F15.4°C 47.6°F8.7°C 64% 9.3 mph ESE15.0 kmh ESE 12.0 mph19.3 kmh 30.11 in1019.6 mb - 0.00 in0.0 mm 0.00 in0.0 mm